powered by Meteolive.it
Dati meteo   Attuali  Passati Ogni 3 ore 7 Giorni 15 Giorni Avvisi Meteo Mappe meteo
Roma / Urbe, Italy
Alba: 5:22 AM UTC1
Tramonto: 7:02 PM UTC1
 Lat: 41.95N, Lon: 12.50E
ICAO Usato: LIRU
Condizioni Meteo Attuali Aggiornate: 21.08.2017 alle 18:50 LT
Quasi Sereno
Quasi Sereno
Sereno
Quasi Sereno
Temp: 32°C
Umidita': 23%
Direz/Vel. Vento: SSW 10 KTS raffiche
Pressione: 1012 hPa
Punto di rugiada: 8°C
Temperatura percepita: 30°C
Visibilitą: >10 KM (ottima)
Temperatura percepita in
presenza di vento (Wind Chill)
:
N/D
T. max (ultime 24 ore): 32°C
T. min (ultime 24 ore): 22°C


METAR ORIGINALE
LIRU 211450Z 20010KT CAVOK 32/08 Q1012